sensor_id;sensor_type;location;lat;lon;timestamp;P1;durP1;ratioP1;P2;durP2;ratioP2
14754;SDS011;7469;50.906;6.952;2023-04-03T00:01:09;5.53;;;1.77;;
14754;SDS011;7469;50.906;6.952;2023-04-03T00:03:38;6.00;;;2.33;;
14754;SDS011;7469;50.906;6.952;2023-04-03T00:06:08;2.97;;;1.90;;
14754;SDS011;7469;50.906;6.952;2023-04-03T00:08:38;3.57;;;1.90;;
14754;SDS011;7469;50.906;6.952;2023-04-03T00:11:07;4.30;;;1.77;;
14754;SDS011;7469;50.906;6.952;2023-04-03T00:13:36;5.20;;;1.43;;
14754;SDS011;7469;50.906;6.952;2023-04-03T00:16:04;2.70;;;1.77;;
14754;SDS011;7469;50.906;6.952;2023-04-03T00:18:35;2.43;;;1.63;;
14754;SDS011;7469;50.906;6.952;2023-04-03T00:21:03;6.97;;;1.97;;
14754;SDS011;7469;50.906;6.952;2023-04-03T00:23:32;2.00;;;1.43;;
14754;SDS011;7469;50.906;6.952;2023-04-03T00:26:01;4.07;;;1.60;;
14754;SDS011;7469;50.906;6.952;2023-04-03T00:28:29;5.60;;;1.77;;
14754;SDS011;7469;50.906;6.952;2023-04-03T00:30:57;5.27;;;1.80;;
14754;SDS011;7469;50.906;6.952;2023-04-03T00:33:25;5.17;;;1.70;;
14754;SDS011;7469;50.906;6.952;2023-04-03T00:35:55;2.93;;;1.70;;
14754;SDS011;7469;50.906;6.952;2023-04-03T00:38:23;2.13;;;1.47;;
14754;SDS011;7469;50.906;6.952;2023-04-03T00:40:51;3.33;;;1.70;;
14754;SDS011;7469;50.906;6.952;2023-04-03T00:43:20;3.03;;;1.80;;
14754;SDS011;7469;50.906;6.952;2023-04-03T00:45:49;5.97;;;1.53;;
14754;SDS011;7469;50.906;6.952;2023-04-03T00:48:20;4.97;;;2.00;;
14754;SDS011;7469;50.906;6.952;2023-04-03T00:50:49;4.00;;;1.77;;
14754;SDS011;7469;50.906;6.952;2023-04-03T00:53:21;3.40;;;1.57;;
14754;SDS011;7469;50.906;6.952;2023-04-03T00:55:53;2.77;;;1.70;;
14754;SDS011;7469;50.906;6.952;2023-04-03T00:58:25;1.97;;;1.33;;
14754;SDS011;7469;50.906;6.952;2023-04-03T01:01:01;4.17;;;1.93;;
14754;SDS011;7469;50.906;6.952;2023-04-03T01:03:33;2.43;;;1.90;;
14754;SDS011;7469;50.906;6.952;2023-04-03T01:06:02;2.07;;;1.67;;
14754;SDS011;7469;50.906;6.952;2023-04-03T01:08:32;2.20;;;1.87;;
14754;SDS011;7469;50.906;6.952;2023-04-03T01:11:00;1.90;;;1.70;;
14754;SDS011;7469;50.906;6.952;2023-04-03T01:13:29;2.03;;;1.47;;
14754;SDS011;7469;50.906;6.952;2023-04-03T01:16:00;1.70;;;1.60;;
14754;SDS011;7469;50.906;6.952;2023-04-03T01:18:29;4.43;;;1.37;;
14754;SDS011;7469;50.906;6.952;2023-04-03T01:24:00;2.40;;;1.73;;
14754;SDS011;7469;50.906;6.952;2023-04-03T01:26:38;1.97;;;1.53;;
14754;SDS011;7469;50.906;6.952;2023-04-03T01:29:06;4.30;;;1.57;;
14754;SDS011;7469;50.906;6.952;2023-04-03T01:31:49;5.23;;;1.30;;
14754;SDS011;7469;50.906;6.952;2023-04-03T01:34:19;1.87;;;1.23;;
14754;SDS011;7469;50.906;6.952;2023-04-03T01:36:47;4.20;;;1.47;;
14754;SDS011;7469;50.906;6.952;2023-04-03T01:39:15;2.50;;;1.30;;
14754;SDS011;7469;50.906;6.952;2023-04-03T01:41:43;1.53;;;1.33;;
14754;SDS011;7469;50.906;6.952;2023-04-03T01:44:11;2.40;;;1.40;;
14754;SDS011;7469;50.906;6.952;2023-04-03T01:46:39;4.13;;;1.53;;
14754;SDS011;7469;50.906;6.952;2023-04-03T01:49:09;2.67;;;1.50;;
14754;SDS011;7469;50.906;6.952;2023-04-03T01:51:37;2.23;;;1.50;;
14754;SDS011;7469;50.906;6.952;2023-04-03T01:54:05;3.67;;;1.50;;
14754;SDS011;7469;50.906;6.952;2023-04-03T01:56:33;2.10;;;1.33;;
14754;SDS011;7469;50.906;6.952;2023-04-03T01:59:02;5.10;;;1.50;;
14754;SDS011;7469;50.906;6.952;2023-04-03T02:01:29;2.47;;;1.50;;
14754;SDS011;7469;50.906;6.952;2023-04-03T02:03:57;1.63;;;1.53;;
14754;SDS011;7469;50.906;6.952;2023-04-03T02:06:27;2.43;;;1.47;;
14754;SDS011;7469;50.906;6.952;2023-04-03T02:08:55;3.00;;;1.90;;
14754;SDS011;7469;50.906;6.952;2023-04-03T02:11:23;1.90;;;1.63;;
14754;SDS011;7469;50.906;6.952;2023-04-03T02:13:51;3.30;;;1.50;;
14754;SDS011;7469;50.906;6.952;2023-04-03T02:16:18;1.90;;;1.37;;
14754;SDS011;7469;50.906;6.952;2023-04-03T02:18:47;3.37;;;1.40;;
14754;SDS011;7469;50.906;6.952;2023-04-03T02:21:14;2.37;;;1.63;;
14754;SDS011;7469;50.906;6.952;2023-04-03T02:23:44;2.63;;;1.47;;
14754;SDS011;7469;50.906;6.952;2023-04-03T02:26:12;2.67;;;1.73;;
14754;SDS011;7469;50.906;6.952;2023-04-03T02:28:43;2.43;;;1.70;;
14754;SDS011;7469;50.906;6.952;2023-04-03T02:31:13;1.47;;;1.37;;
14754;SDS011;7469;50.906;6.952;2023-04-03T02:33:41;4.60;;;1.57;;
14754;SDS011;7469;50.906;6.952;2023-04-03T02:36:09;1.93;;;1.27;;
14754;SDS011;7469;50.906;6.952;2023-04-03T02:38:37;2.03;;;1.50;;
14754;SDS011;7469;50.906;6.952;2023-04-03T02:41:07;2.27;;;1.60;;
14754;SDS011;7469;50.906;6.952;2023-04-03T02:43:39;3.90;;;1.53;;
14754;SDS011;7469;50.906;6.952;2023-04-03T02:46:07;1.83;;;1.60;;
14754;SDS011;7469;50.906;6.952;2023-04-03T02:48:35;2.03;;;1.73;;
14754;SDS011;7469;50.906;6.952;2023-04-03T02:51:04;2.10;;;1.47;;
14754;SDS011;7469;50.906;6.952;2023-04-03T02:53:32;2.93;;;1.87;;
14754;SDS011;7469;50.906;6.952;2023-04-03T02:56:00;2.37;;;1.67;;
14754;SDS011;7469;50.906;6.952;2023-04-03T02:58:29;1.97;;;1.80;;
14754;SDS011;7469;50.906;6.952;2023-04-03T03:00:57;5.63;;;1.80;;
14754;SDS011;7469;50.906;6.952;2023-04-03T03:03:25;3.20;;;1.97;;
14754;SDS011;7469;50.906;6.952;2023-04-03T03:06:00;3.83;;;1.97;;
14754;SDS011;7469;50.906;6.952;2023-04-03T03:08:29;2.30;;;1.70;;
14754;SDS011;7469;50.906;6.952;2023-04-03T03:10:57;2.63;;;1.77;;
14754;SDS011;7469;50.906;6.952;2023-04-03T03:13:26;3.43;;;2.20;;
14754;SDS011;7469;50.906;6.952;2023-04-03T03:15:55;1.80;;;1.70;;
14754;SDS011;7469;50.906;6.952;2023-04-03T03:18:24;5.13;;;2.03;;
14754;SDS011;7469;50.906;6.952;2023-04-03T03:20:52;2.23;;;1.70;;
14754;SDS011;7469;50.906;6.952;2023-04-03T03:23:21;2.13;;;1.70;;
14754;SDS011;7469;50.906;6.952;2023-04-03T03:25:53;2.70;;;2.10;;
14754;SDS011;7469;50.906;6.952;2023-04-03T03:28:22;1.67;;;1.50;;
14754;SDS011;7469;50.906;6.952;2023-04-03T03:30:50;2.67;;;1.70;;
14754;SDS011;7469;50.906;6.952;2023-04-03T03:33:19;3.63;;;1.87;;
14754;SDS011;7469;50.906;6.952;2023-04-03T03:35:47;4.60;;;1.83;;
14754;SDS011;7469;50.906;6.952;2023-04-03T03:38:16;2.40;;;1.57;;
14754;SDS011;7469;50.906;6.952;2023-04-03T03:40:44;2.20;;;1.70;;
14754;SDS011;7469;50.906;6.952;2023-04-03T03:43:12;2.10;;;1.50;;
14754;SDS011;7469;50.906;6.952;2023-04-03T03:45:40;5.50;;;1.90;;
14754;SDS011;7469;50.906;6.952;2023-04-03T03:48:08;2.43;;;1.37;;
14754;SDS011;7469;50.906;6.952;2023-04-03T03:50:37;3.20;;;1.90;;
14754;SDS011;7469;50.906;6.952;2023-04-03T03:53:06;2.17;;;1.60;;
14754;SDS011;7469;50.906;6.952;2023-04-03T03:55:34;6.03;;;1.87;;
14754;SDS011;7469;50.906;6.952;2023-04-03T03:58:03;2.60;;;1.73;;
14754;SDS011;7469;50.906;6.952;2023-04-03T04:00:31;2.60;;;1.80;;
14754;SDS011;7469;50.906;6.952;2023-04-03T04:02:59;3.37;;;1.67;;
14754;SDS011;7469;50.906;6.952;2023-04-03T04:05:27;4.67;;;1.67;;
14754;SDS011;7469;50.906;6.952;2023-04-03T04:07:57;2.43;;;1.50;;
14754;SDS011;7469;50.906;6.952;2023-04-03T04:10:25;2.23;;;1.53;;
14754;SDS011;7469;50.906;6.952;2023-04-03T04:12:53;2.50;;;1.70;;
14754;SDS011;7469;50.906;6.952;2023-04-03T04:15:23;1.53;;;1.43;;
14754;SDS011;7469;50.906;6.952;2023-04-03T04:17:52;6.77;;;1.80;;
14754;SDS011;7469;50.906;6.952;2023-04-03T04:20:20;2.17;;;1.47;;
14754;SDS011;7469;50.906;6.952;2023-04-03T04:22:48;2.93;;;2.00;;
14754;SDS011;7469;50.906;6.952;2023-04-03T04:25:17;2.77;;;1.40;;
14754;SDS011;7469;50.906;6.952;2023-04-03T04:27:45;4.77;;;1.80;;
14754;SDS011;7469;50.906;6.952;2023-04-03T04:30:14;2.97;;;1.60;;
14754;SDS011;7469;50.906;6.952;2023-04-03T04:32:42;2.37;;;1.40;;
14754;SDS011;7469;50.906;6.952;2023-04-03T04:35:10;3.27;;;1.70;;
14754;SDS011;7469;50.906;6.952;2023-04-03T04:37:41;1.93;;;1.50;;
14754;SDS011;7469;50.906;6.952;2023-04-03T04:40:10;2.00;;;1.53;;
14754;SDS011;7469;50.906;6.952;2023-04-03T04:42:39;4.63;;;1.60;;
14754;SDS011;7469;50.906;6.952;2023-04-03T04:45:07;1.70;;;1.40;;
14754;SDS011;7469;50.906;6.952;2023-04-03T04:47:36;3.50;;;1.57;;
14754;SDS011;7469;50.906;6.952;2023-04-03T04:50:04;2.23;;;1.70;;
14754;SDS011;7469;50.906;6.952;2023-04-03T04:52:33;2.03;;;1.33;;
14754;SDS011;7469;50.906;6.952;2023-04-03T04:55:01;4.80;;;1.60;;
14754;SDS011;7469;50.906;6.952;2023-04-03T04:57:29;2.50;;;1.60;;
14754;SDS011;7469;50.906;6.952;2023-04-03T04:59:58;1.40;;;1.20;;
14754;SDS011;7469;50.906;6.952;2023-04-03T05:02:26;2.80;;;1.43;;
14754;SDS011;7469;50.906;6.952;2023-04-03T05:04:54;4.17;;;1.40;;
14754;SDS011;7469;50.906;6.952;2023-04-03T05:07:22;1.50;;;1.30;;
14754;SDS011;7469;50.906;6.952;2023-04-03T05:09:51;3.20;;;1.33;;
14754;SDS011;7469;50.906;6.952;2023-04-03T05:12:19;2.23;;;1.40;;
14754;SDS011;7469;50.906;6.952;2023-04-03T05:14:47;3.07;;;1.50;;
14754;SDS011;7469;50.906;6.952;2023-04-03T05:17:16;3.23;;;1.60;;
14754;SDS011;7469;50.906;6.952;2023-04-03T05:19:44;3.60;;;1.47;;
14754;SDS011;7469;50.906;6.952;2023-04-03T05:22:12;1.50;;;1.40;;
14754;SDS011;7469;50.906;6.952;2023-04-03T05:24:41;2.80;;;1.60;;
14754;SDS011;7469;50.906;6.952;2023-04-03T05:27:09;1.53;;;1.43;;
14754;SDS011;7469;50.906;6.952;2023-04-03T05:29:37;2.80;;;1.80;;
14754;SDS011;7469;50.906;6.952;2023-04-03T05:32:05;1.83;;;1.40;;
14754;SDS011;7469;50.906;6.952;2023-04-03T05:34:34;5.27;;;1.50;;
14754;SDS011;7469;50.906;6.952;2023-04-03T05:37:02;3.03;;;1.40;;
14754;SDS011;7469;50.906;6.952;2023-04-03T05:39:31;1.90;;;1.27;;
14754;SDS011;7469;50.906;6.952;2023-04-03T05:41:59;2.63;;;1.50;;
14754;SDS011;7469;50.906;6.952;2023-04-03T05:44:27;5.23;;;1.63;;
14754;SDS011;7469;50.906;6.952;2023-04-03T05:46:55;4.80;;;1.53;;
14754;SDS011;7469;50.906;6.952;2023-04-03T05:49:23;2.37;;;1.37;;
14754;SDS011;7469;50.906;6.952;2023-04-03T05:51:52;2.77;;;1.67;;
14754;SDS011;7469;50.906;6.952;2023-04-03T05:54:23;2.73;;;1.60;;
14754;SDS011;7469;50.906;6.952;2023-04-03T05:56:52;4.57;;;1.30;;
14754;SDS011;7469;50.906;6.952;2023-04-03T05:59:20;2.90;;;1.60;;
14754;SDS011;7469;50.906;6.952;2023-04-03T06:01:48;1.93;;;1.33;;
14754;SDS011;7469;50.906;6.952;2023-04-03T06:04:17;1.90;;;1.30;;
14754;SDS011;7469;50.906;6.952;2023-04-03T06:06:46;2.50;;;1.40;;
14754;SDS011;7469;50.906;6.952;2023-04-03T06:09:17;2.83;;;1.33;;
14754;SDS011;7469;50.906;6.952;2023-04-03T06:11:46;3.60;;;1.77;;
14754;SDS011;7469;50.906;6.952;2023-04-03T06:14:14;3.00;;;1.50;;
14754;SDS011;7469;50.906;6.952;2023-04-03T06:16:42;4.13;;;1.60;;
14754;SDS011;7469;50.906;6.952;2023-04-03T06:19:11;5.33;;;1.67;;
14754;SDS011;7469;50.906;6.952;2023-04-03T06:21:39;2.60;;;1.47;;
14754;SDS011;7469;50.906;6.952;2023-04-03T06:24:07;2.83;;;1.53;;
14754;SDS011;7469;50.906;6.952;2023-04-03T06:26:41;3.17;;;1.67;;
14754;SDS011;7469;50.906;6.952;2023-04-03T06:29:09;3.23;;;1.40;;
14754;SDS011;7469;50.906;6.952;2023-04-03T06:31:37;4.77;;;1.60;;
14754;SDS011;7469;50.906;6.952;2023-04-03T06:34:06;7.40;;;1.50;;
14754;SDS011;7469;50.906;6.952;2023-04-03T06:36:35;3.80;;;1.53;;
14754;SDS011;7469;50.906;6.952;2023-04-03T06:39:03;1.73;;;1.30;;
14754;SDS011;7469;50.906;6.952;2023-04-03T06:41:31;2.20;;;1.50;;
14754;SDS011;7469;50.906;6.952;2023-04-03T06:44:02;6.17;;;1.80;;
14754;SDS011;7469;50.906;6.952;2023-04-03T06:46:30;4.47;;;1.47;;
14754;SDS011;7469;50.906;6.952;2023-04-03T06:48:58;9.17;;;1.90;;
14754;SDS011;7469;50.906;6.952;2023-04-03T06:51:27;3.23;;;1.27;;
14754;SDS011;7469;50.906;6.952;2023-04-03T06:53:56;3.53;;;1.60;;
14754;SDS011;7469;50.906;6.952;2023-04-03T06:56:25;8.70;;;1.80;;
14754;SDS011;7469;50.906;6.952;2023-04-03T06:58:54;2.83;;;1.33;;
14754;SDS011;7469;50.906;6.952;2023-04-03T07:01:25;2.83;;;1.33;;
14754;SDS011;7469;50.906;6.952;2023-04-03T07:03:55;4.40;;;1.37;;
14754;SDS011;7469;50.906;6.952;2023-04-03T07:06:23;4.70;;;1.37;;
14754;SDS011;7469;50.906;6.952;2023-04-03T07:08:53;2.97;;;1.30;;
14754;SDS011;7469;50.906;6.952;2023-04-03T07:11:21;3.30;;;1.33;;
14754;SDS011;7469;50.906;6.952;2023-04-03T07:13:49;8.17;;;1.37;;
14754;SDS011;7469;50.906;6.952;2023-04-03T07:16:18;2.53;;;1.40;;
14754;SDS011;7469;50.906;6.952;2023-04-03T07:18:47;3.07;;;1.30;;
14754;SDS011;7469;50.906;6.952;2023-04-03T07:21:15;3.27;;;1.13;;
14754;SDS011;7469;50.906;6.952;2023-04-03T07:23:43;5.10;;;1.40;;
14754;SDS011;7469;50.906;6.952;2023-04-03T07:26:11;3.93;;;1.40;;
14754;SDS011;7469;50.906;6.952;2023-04-03T07:28:39;1.83;;;1.10;;
14754;SDS011;7469;50.906;6.952;2023-04-03T07:31:10;2.33;;;1.40;;
14754;SDS011;7469;50.906;6.952;2023-04-03T07:33:39;2.63;;;1.30;;
14754;SDS011;7469;50.906;6.952;2023-04-03T07:36:15;2.93;;;1.20;;
14754;SDS011;7469;50.906;6.952;2023-04-03T07:38:44;3.17;;;1.30;;
14754;SDS011;7469;50.906;6.952;2023-04-03T07:41:13;2.40;;;1.07;;
14754;SDS011;7469;50.906;6.952;2023-04-03T07:43:43;2.20;;;1.10;;
14754;SDS011;7469;50.906;6.952;2023-04-03T07:46:12;1.83;;;1.17;;
14754;SDS011;7469;50.906;6.952;2023-04-03T07:48:40;3.27;;;1.20;;
14754;SDS011;7469;50.906;6.952;2023-04-03T07:51:09;7.20;;;1.63;;
14754;SDS011;7469;50.906;6.952;2023-04-03T07:53:38;3.73;;;1.40;;
14754;SDS011;7469;50.906;6.952;2023-04-03T07:56:06;2.50;;;1.13;;
14754;SDS011;7469;50.906;6.952;2023-04-03T07:58:35;3.67;;;1.47;;
14754;SDS011;7469;50.906;6.952;2023-04-03T08:01:04;5.23;;;1.47;;
14754;SDS011;7469;50.906;6.952;2023-04-03T08:03:32;1.63;;;1.30;;
14754;SDS011;7469;50.906;6.952;2023-04-03T08:06:01;4.50;;;1.37;;
14754;SDS011;7469;50.906;6.952;2023-04-03T08:08:36;2.93;;;1.27;;
14754;SDS011;7469;50.906;6.952;2023-04-03T08:11:06;2.60;;;1.27;;
14754;SDS011;7469;50.906;6.952;2023-04-03T08:13:34;5.40;;;1.30;;
14754;SDS011;7469;50.906;6.952;2023-04-03T08:16:09;2.33;;;1.13;;
14754;SDS011;7469;50.906;6.952;2023-04-03T08:18:39;4.90;;;1.40;;
14754;SDS011;7469;50.906;6.952;2023-04-03T08:21:07;4.73;;;1.20;;
14754;SDS011;7469;50.906;6.952;2023-04-03T08:23:36;4.07;;;1.33;;
14754;SDS011;7469;50.906;6.952;2023-04-03T08:26:08;2.77;;;1.50;;
14754;SDS011;7469;50.906;6.952;2023-04-03T08:28:37;3.07;;;1.60;;
14754;SDS011;7469;50.906;6.952;2023-04-03T08:31:06;4.17;;;1.33;;
14754;SDS011;7469;50.906;6.952;2023-04-03T08:33:37;5.80;;;1.50;;
14754;SDS011;7469;50.906;6.952;2023-04-03T08:36:06;3.43;;;1.23;;
14754;SDS011;7469;50.906;6.952;2023-04-03T08:38:44;2.37;;;1.23;;
14754;SDS011;7469;50.906;6.952;2023-04-03T08:41:14;4.73;;;1.30;;
14754;SDS011;7469;50.906;6.952;2023-04-03T08:43:58;5.23;;;1.13;;
14754;SDS011;7469;50.906;6.952;2023-04-03T08:46:38;2.63;;;1.30;;
14754;SDS011;7469;50.906;6.952;2023-04-03T08:49:15;2.93;;;1.20;;
14754;SDS011;7469;50.906;6.952;2023-04-03T08:51:48;1.67;;;1.10;;
14754;SDS011;7469;50.906;6.952;2023-04-03T08:54:23;2.63;;;1.17;;
14754;SDS011;7469;50.906;6.952;2023-04-03T08:56:57;2.43;;;1.27;;
14754;SDS011;7469;50.906;6.952;2023-04-03T08:59:29;6.70;;;1.37;;
14754;SDS011;7469;50.906;6.952;2023-04-03T09:02:01;2.20;;;1.13;;
14754;SDS011;7469;50.906;6.952;2023-04-03T09:04:42;2.90;;;1.30;;
14754;SDS011;7469;50.906;6.952;2023-04-03T09:07:13;4.63;;;1.83;;
14754;SDS011;7469;50.906;6.952;2023-04-03T09:09:50;7.13;;;1.60;;
14754;SDS011;7469;50.906;6.952;2023-04-03T09:12:21;2.53;;;1.23;;
14754;SDS011;7469;50.906;6.952;2023-04-03T09:14:56;2.77;;;1.10;;
14754;SDS011;7469;50.906;6.952;2023-04-03T09:17:33;3.93;;;1.10;;
14754;SDS011;7469;50.906;6.952;2023-04-03T09:20:12;1.27;;;1.00;;
14754;SDS011;7469;50.906;6.952;2023-04-03T09:22:46;3.37;;;1.23;;
14754;SDS011;7469;50.906;6.952;2023-04-03T09:25:20;0.73;;;0.70;;
14754;SDS011;7469;50.906;6.952;2023-04-03T09:27:51;1.23;;;1.00;;
14754;SDS011;7469;50.906;6.952;2023-04-03T09:30:19;3.17;;;1.03;;
14754;SDS011;7469;50.906;6.952;2023-04-03T09:32:50;1.93;;;0.93;;
14754;SDS011;7469;50.906;6.952;2023-04-03T09:35:20;3.70;;;1.03;;
14754;SDS011;7469;50.906;6.952;2023-04-03T09:38:14;3.97;;;1.23;;
14754;SDS011;7469;50.906;6.952;2023-04-03T09:40:45;1.90;;;0.90;;
14754;SDS011;7469;50.906;6.952;2023-04-03T09:49:02;3.37;;;1.30;;
14754;SDS011;7469;50.906;6.952;2023-04-03T09:51:35;2.77;;;1.27;;
14754;SDS011;7469;50.906;6.952;2023-04-03T09:54:23;2.07;;;1.13;;
14754;SDS011;7469;50.906;6.952;2023-04-03T09:56:55;3.80;;;1.20;;
14754;SDS011;7469;50.906;6.952;2023-04-03T09:59:27;2.00;;;1.00;;
14754;SDS011;7469;50.906;6.952;2023-04-03T10:01:58;1.77;;;0.93;;
14754;SDS011;7469;50.906;6.952;2023-04-03T10:04:37;2.10;;;1.07;;
14754;SDS011;7469;50.906;6.952;2023-04-03T10:09:57;4.00;;;1.40;;
14754;SDS011;7469;50.906;6.952;2023-04-03T10:12:27;2.10;;;1.20;;
14754;SDS011;7469;50.906;6.952;2023-04-03T10:14:56;1.77;;;1.10;;
14754;SDS011;7469;50.906;6.952;2023-04-03T10:17:28;1.47;;;1.03;;
14754;SDS011;7469;50.906;6.952;2023-04-03T10:20:07;4.93;;;1.20;;
14754;SDS011;7469;50.906;6.952;2023-04-03T10:22:53;2.27;;;1.10;;
14754;SDS011;7469;50.906;6.952;2023-04-03T10:25:30;4.57;;;1.20;;
14754;SDS011;7469;50.906;6.952;2023-04-03T10:28:06;3.43;;;0.93;;
14754;SDS011;7469;50.906;6.952;2023-04-03T10:30:42;2.63;;;1.20;;
14754;SDS011;7469;50.906;6.952;2023-04-03T10:33:24;2.70;;;0.77;;
14754;SDS011;7469;50.906;6.952;2023-04-03T10:36:08;2.60;;;1.17;;
14754;SDS011;7469;50.906;6.952;2023-04-03T10:38:47;1.87;;;0.93;;
14754;SDS011;7469;50.906;6.952;2023-04-03T10:41:23;2.13;;;1.40;;
14754;SDS011;7469;50.906;6.952;2023-04-03T10:44:04;2.83;;;1.20;;
14754;SDS011;7469;50.906;6.952;2023-04-03T10:46:42;0.93;;;0.90;;
14754;SDS011;7469;50.906;6.952;2023-04-03T10:49:16;2.37;;;0.80;;
14754;SDS011;7469;50.906;6.952;2023-04-03T10:51:55;3.33;;;0.90;;
14754;SDS011;7469;50.906;6.952;2023-04-03T10:54:32;2.57;;;1.30;;
14754;SDS011;7469;50.906;6.952;2023-04-03T10:57:04;1.37;;;1.00;;
14754;SDS011;7469;50.906;6.952;2023-04-03T10:59:41;1.00;;;0.70;;
14754;SDS011;7469;50.906;6.952;2023-04-03T11:02:14;1.70;;;0.90;;
14754;SDS011;7469;50.906;6.952;2023-04-03T11:04:51;0.77;;;0.73;;
14754;SDS011;7469;50.906;6.952;2023-04-03T11:07:23;0.83;;;0.73;;
14754;SDS011;7469;50.906;6.952;2023-04-03T11:09:54;0.97;;;0.70;;
14754;SDS011;7469;50.906;6.952;2023-04-03T11:12:28;1.27;;;0.77;;
14754;SDS011;7469;50.906;6.952;2023-04-03T11:15:05;1.57;;;0.80;;
14754;SDS011;7469;50.906;6.952;2023-04-03T11:17:39;2.13;;;0.80;;
14754;SDS011;7469;50.906;6.952;2023-04-03T11:20:14;1.07;;;0.97;;
14754;SDS011;7469;50.906;6.952;2023-04-03T11:22:47;1.40;;;0.80;;
14754;SDS011;7469;50.906;6.952;2023-04-03T11:25:19;1.23;;;1.00;;
14754;SDS011;7469;50.906;6.952;2023-04-03T11:27:51;1.37;;;0.70;;
14754;SDS011;7469;50.906;6.952;2023-04-03T11:30:25;1.70;;;0.80;;
14754;SDS011;7469;50.906;6.952;2023-04-03T11:33:11;1.10;;;0.80;;
14754;SDS011;7469;50.906;6.952;2023-04-03T11:36:03;2.03;;;1.00;;
14754;SDS011;7469;50.906;6.952;2023-04-03T11:38:51;3.20;;;0.87;;
14754;SDS011;7469;50.906;6.952;2023-04-03T11:41:25;1.93;;;0.90;;
14754;SDS011;7469;50.906;6.952;2023-04-03T11:43:56;1.57;;;0.70;;
14754;SDS011;7469;50.906;6.952;2023-04-03T11:55:43;1.50;;;0.90;;
14754;SDS011;7469;50.906;6.952;2023-04-03T11:58:22;1.87;;;0.87;;
14754;SDS011;7469;50.906;6.952;2023-04-03T12:00:56;0.87;;;0.80;;
14754;SDS011;7469;50.906;6.952;2023-04-03T12:03:35;1.00;;;0.90;;
14754;SDS011;7469;50.906;6.952;2023-04-03T12:06:49;1.10;;;0.80;;
14754;SDS011;7469;50.906;6.952;2023-04-03T12:12:57;1.57;;;0.90;;
14754;SDS011;7469;50.906;6.952;2023-04-03T12:21:12;1.23;;;0.77;;
14754;SDS011;7469;50.906;6.952;2023-04-03T12:24:01;3.17;;;0.77;;
14754;SDS011;7469;50.906;6.952;2023-04-03T12:26:32;0.63;;;0.60;;
14754;SDS011;7469;50.906;6.952;2023-04-03T12:29:15;3.70;;;1.00;;
14754;SDS011;7469;50.906;6.952;2023-04-03T12:31:52;3.57;;;0.83;;
14754;SDS011;7469;50.906;6.952;2023-04-03T12:34:37;1.40;;;0.80;;
14754;SDS011;7469;50.906;6.952;2023-04-03T12:37:17;0.97;;;0.87;;
14754;SDS011;7469;50.906;6.952;2023-04-03T12:39:54;1.43;;;1.00;;
14754;SDS011;7469;50.906;6.952;2023-04-03T12:42:32;3.90;;;0.90;;
14754;SDS011;7469;50.906;6.952;2023-04-03T12:45:21;1.37;;;0.73;;
14754;SDS011;7469;50.906;6.952;2023-04-03T12:47:51;1.13;;;0.60;;
14754;SDS011;7469;50.906;6.952;2023-04-03T12:50:23;1.17;;;0.60;;
14754;SDS011;7469;50.906;6.952;2023-04-03T12:52:57;3.00;;;0.70;;
14754;SDS011;7469;50.906;6.952;2023-04-03T12:55:29;3.23;;;0.80;;
14754;SDS011;7469;50.906;6.952;2023-04-03T12:57:57;1.63;;;0.90;;
14754;SDS011;7469;50.906;6.952;2023-04-03T13:00:41;0.80;;;0.73;;
14754;SDS011;7469;50.906;6.952;2023-04-03T13:03:19;2.03;;;0.60;;
14754;SDS011;7469;50.906;6.952;2023-04-03T13:05:52;1.17;;;0.63;;
14754;SDS011;7469;50.906;6.952;2023-04-03T13:08:21;0.77;;;0.70;;
14754;SDS011;7469;50.906;6.952;2023-04-03T13:10:51;0.70;;;0.70;;
14754;SDS011;7469;50.906;6.952;2023-04-03T13:13:22;2.00;;;0.90;;
14754;SDS011;7469;50.906;6.952;2023-04-03T13:15:52;1.23;;;0.70;;
14754;SDS011;7469;50.906;6.952;2023-04-03T13:18:22;1.70;;;0.60;;
14754;SDS011;7469;50.906;6.952;2023-04-03T13:20:53;1.20;;;0.70;;
14754;SDS011;7469;50.906;6.952;2023-04-03T13:23:24;1.17;;;0.93;;
14754;SDS011;7469;50.906;6.952;2023-04-03T13:25:52;0.90;;;0.70;;
14754;SDS011;7469;50.906;6.952;2023-04-03T13:28:22;1.23;;;0.50;;
14754;SDS011;7469;50.906;6.952;2023-04-03T13:30:55;0.80;;;0.80;;
14754;SDS011;7469;50.906;6.952;2023-04-03T13:33:29;1.33;;;0.80;;
14754;SDS011;7469;50.906;6.952;2023-04-03T13:36:02;2.60;;;0.90;;
14754;SDS011;7469;50.906;6.952;2023-04-03T13:38:32;2.47;;;0.97;;
14754;SDS011;7469;50.906;6.952;2023-04-03T13:41:04;1.20;;;0.67;;
14754;SDS011;7469;50.906;6.952;2023-04-03T13:43:48;1.13;;;0.63;;
14754;SDS011;7469;50.906;6.952;2023-04-03T13:46:24;1.20;;;1.03;;
14754;SDS011;7469;50.906;6.952;2023-04-03T13:48:54;4.03;;;1.13;;
14754;SDS011;7469;50.906;6.952;2023-04-03T13:51:25;2.10;;;0.77;;
14754;SDS011;7469;50.906;6.952;2023-04-03T13:53:55;0.93;;;0.63;;
14754;SDS011;7469;50.906;6.952;2023-04-03T13:56:25;2.30;;;0.53;;
14754;SDS011;7469;50.906;6.952;2023-04-03T13:58:59;1.23;;;0.60;;
14754;SDS011;7469;50.906;6.952;2023-04-03T14:01:33;2.23;;;0.97;;
14754;SDS011;7469;50.906;6.952;2023-04-03T14:04:12;1.63;;;0.80;;
14754;SDS011;7469;50.906;6.952;2023-04-03T14:06:44;2.20;;;1.10;;
14754;SDS011;7469;50.906;6.952;2023-04-03T14:09:13;2.40;;;1.00;;
14754;SDS011;7469;50.906;6.952;2023-04-03T14:11:43;2.27;;;1.00;;
14754;SDS011;7469;50.906;6.952;2023-04-03T14:14:13;1.07;;;0.90;;
14754;SDS011;7469;50.906;6.952;2023-04-03T14:16:44;1.57;;;0.93;;
14754;SDS011;7469;50.906;6.952;2023-04-03T14:19:17;0.90;;;0.90;;
14754;SDS011;7469;50.906;6.952;2023-04-03T14:21:50;2.00;;;0.90;;
14754;SDS011;7469;50.906;6.952;2023-04-03T14:24:19;2.33;;;0.70;;
14754;SDS011;7469;50.906;6.952;2023-04-03T14:26:48;1.27;;;1.00;;
14754;SDS011;7469;50.906;6.952;2023-04-03T14:29:17;0.70;;;0.60;;
14754;SDS011;7469;50.906;6.952;2023-04-03T14:31:46;0.70;;;0.70;;
14754;SDS011;7469;50.906;6.952;2023-04-03T14:34:25;1.93;;;1.10;;
14754;SDS011;7469;50.906;6.952;2023-04-03T14:36:55;0.80;;;0.70;;
14754;SDS011;7469;50.906;6.952;2023-04-03T14:39:23;1.20;;;1.10;;
14754;SDS011;7469;50.906;6.952;2023-04-03T14:41:51;1.33;;;0.97;;
14754;SDS011;7469;50.906;6.952;2023-04-03T14:44:19;1.20;;;0.80;;
14754;SDS011;7469;50.906;6.952;2023-04-03T14:46:47;2.20;;;1.20;;
14754;SDS011;7469;50.906;6.952;2023-04-03T14:49:23;2.83;;;0.93;;
14754;SDS011;7469;50.906;6.952;2023-04-03T14:51:55;1.67;;;0.90;;
14754;SDS011;7469;50.906;6.952;2023-04-03T14:54:24;1.30;;;0.80;;
14754;SDS011;7469;50.906;6.952;2023-04-03T14:56:55;2.57;;;1.10;;
14754;SDS011;7469;50.906;6.952;2023-04-03T14:59:24;1.03;;;0.90;;
14754;SDS011;7469;50.906;6.952;2023-04-03T15:01:53;1.93;;;1.00;;
14754;SDS011;7469;50.906;6.952;2023-04-03T15:04:21;1.17;;;0.93;;
14754;SDS011;7469;50.906;6.952;2023-04-03T15:06:49;3.17;;;0.90;;
14754;SDS011;7469;50.906;6.952;2023-04-03T15:09:22;1.63;;;1.07;;
14754;SDS011;7469;50.906;6.952;2023-04-03T15:11:52;1.10;;;0.67;;
14754;SDS011;7469;50.906;6.952;2023-04-03T15:14:21;2.90;;;1.00;;
14754;SDS011;7469;50.906;6.952;2023-04-03T15:17:03;1.83;;;0.93;;
14754;SDS011;7469;50.906;6.952;2023-04-03T15:19:32;3.33;;;1.03;;
14754;SDS011;7469;50.906;6.952;2023-04-03T15:22:05;2.40;;;0.93;;
14754;SDS011;7469;50.906;6.952;2023-04-03T15:24:34;1.47;;;0.80;;
14754;SDS011;7469;50.906;6.952;2023-04-03T15:27:02;2.03;;;1.10;;
14754;SDS011;7469;50.906;6.952;2023-04-03T15:29:30;2.17;;;1.20;;
14754;SDS011;7469;50.906;6.952;2023-04-03T15:31:58;1.90;;;1.00;;
14754;SDS011;7469;50.906;6.952;2023-04-03T15:34:27;1.27;;;0.70;;
14754;SDS011;7469;50.906;6.952;2023-04-03T15:36:55;2.53;;;1.30;;
14754;SDS011;7469;50.906;6.952;2023-04-03T15:39:24;1.50;;;0.83;;
14754;SDS011;7469;50.906;6.952;2023-04-03T15:41:54;2.17;;;1.03;;
14754;SDS011;7469;50.906;6.952;2023-04-03T15:44:25;2.03;;;0.73;;
14754;SDS011;7469;50.906;6.952;2023-04-03T15:46:53;1.50;;;0.87;;
14754;SDS011;7469;50.906;6.952;2023-04-03T15:49:21;1.53;;;1.00;;
14754;SDS011;7469;50.906;6.952;2023-04-03T15:51:49;1.23;;;1.00;;
14754;SDS011;7469;50.906;6.952;2023-04-03T15:54:17;2.10;;;0.93;;